createdAt,value
2023-02-02T00:01:49.558Z,44.58
2023-02-02T00:04:21.838Z,46.28
2023-02-02T00:06:50.070Z,47.53
2023-02-02T00:09:18.733Z,45.70
2023-02-02T00:11:47.297Z,44.60
2023-02-02T00:14:15.578Z,46.95
2023-02-02T00:16:53.368Z,43.75
2023-02-02T00:19:23.023Z,45.75
2023-02-02T00:21:51.104Z,45.08
2023-02-02T00:24:19.561Z,44.90
2023-02-02T00:26:48.957Z,45.58
2023-02-02T00:29:18.815Z,45.85
2023-02-02T00:31:48.401Z,45.97
2023-02-02T00:34:16.605Z,44.55
2023-02-02T00:36:45.043Z,43.08
2023-02-02T00:39:15.461Z,45.13
2023-02-02T00:41:43.458Z,43.35
2023-02-02T00:44:29.947Z,42.90
2023-02-02T00:46:57.801Z,43.33
2023-02-02T00:49:25.654Z,42.55
2023-02-02T00:51:53.503Z,41.85
2023-02-02T00:54:21.378Z,43.20
2023-02-02T00:56:49.172Z,41.83
2023-02-02T00:59:17.259Z,40.30
2023-02-02T01:01:46.510Z,39.97
2023-02-02T01:04:14.454Z,41.38
2023-02-02T01:06:42.499Z,41.33
2023-02-02T01:09:10.519Z,39.45
2023-02-02T01:11:38.427Z,39.35
2023-02-02T01:14:06.346Z,40.20
2023-02-02T01:16:34.969Z,38.13
2023-02-02T01:19:03.243Z,39.72
2023-02-02T01:21:31.006Z,41.05
2023-02-02T01:23:58.998Z,40.47
2023-02-02T01:26:26.900Z,40.90
2023-02-02T01:28:54.792Z,39.72
2023-02-02T01:31:22.700Z,39.47
2023-02-02T01:33:51.123Z,39.97
2023-02-02T01:36:21.049Z,39.90
2023-02-02T01:38:49.302Z,39.78
2023-02-02T01:41:24.603Z,39.47
2023-02-02T01:43:53.103Z,38.65
2023-02-02T01:46:30.267Z,39.78
2023-02-02T01:48:58.048Z,40.15
2023-02-02T01:51:30.731Z,38.92
2023-02-02T01:53:59.104Z,40.53
2023-02-02T01:56:34.937Z,40.45
2023-02-02T01:59:03.237Z,39.80
2023-02-02T02:01:31.673Z,39.80
2023-02-02T02:03:59.900Z,36.80
2023-02-02T02:06:29.376Z,38.33
2023-02-02T02:09:03.680Z,39.25
2023-02-02T02:11:32.544Z,40.97
2023-02-02T02:14:21.564Z,40.45
2023-02-02T02:16:49.507Z,39.60
2023-02-02T02:19:35.566Z,39.45
2023-02-02T02:22:25.169Z,38.25
2023-02-02T02:25:23.833Z,39.85
2023-02-02T02:28:11.724Z,38.22
2023-02-02T02:30:58.032Z,39.38
2023-02-02T02:33:37.609Z,40.75
2023-02-02T02:36:18.523Z,41.88
2023-02-02T02:38:53.454Z,40.92
2023-02-02T02:41:23.678Z,41.55
2023-02-02T02:43:55.352Z,41.83
2023-02-02T02:46:23.837Z,40.25
2023-02-02T02:48:52.669Z,40.05
2023-02-02T02:51:39.277Z,38.90
2023-02-02T02:54:07.999Z,40.33
2023-02-02T02:56:53.734Z,39.25
2023-02-02T02:59:34.038Z,39.05
2023-02-02T03:02:01.886Z,38.97
2023-02-02T03:04:34.579Z,39.80
2023-02-02T03:07:05.508Z,40.45
2023-02-02T03:09:35.644Z,42.15
2023-02-02T03:12:04.488Z,40.58
2023-02-02T03:14:35.940Z,41.15
2023-02-02T03:17:04.171Z,39.70
2023-02-02T03:19:32.224Z,40.38
2023-02-02T03:22:00.097Z,41.63
2023-02-02T03:24:27.933Z,43.45
2023-02-02T03:26:55.852Z,41.78
2023-02-02T03:29:23.647Z,43.30
2023-02-02T03:31:51.647Z,41.72
2023-02-02T03:34:19.413Z,41.35
2023-02-02T03:36:47.387Z,42.55
2023-02-02T03:39:15.225Z,41.15
2023-02-02T03:41:43.128Z,41.72
2023-02-02T03:44:10.944Z,41.10
2023-02-02T03:46:38.855Z,43.97
2023-02-02T03:49:06.651Z,42.30
2023-02-02T03:51:34.565Z,42.63
2023-02-02T03:54:02.329Z,42.40
2023-02-02T03:56:30.194Z,41.75
2023-02-02T03:58:57.962Z,40.45
2023-02-02T04:01:29.531Z,39.95
2023-02-02T04:03:57.970Z,41.25
2023-02-02T04:06:26.500Z,41.00
2023-02-02T04:08:54.250Z,41.88
2023-02-02T04:11:22.038Z,42.00
2023-02-02T04:13:50.019Z,41.92
2023-02-02T04:16:17.910Z,41.90
2023-02-02T04:18:45.882Z,43.05
2023-02-02T04:21:13.715Z,44.05
2023-02-02T04:23:41.659Z,43.88
2023-02-02T04:26:09.616Z,43.88
2023-02-02T04:28:37.582Z,45.13
2023-02-02T04:31:05.479Z,46.25
2023-02-02T04:33:35.053Z,45.10
2023-02-02T04:36:03.019Z,44.20
2023-02-02T04:38:30.826Z,44.00
2023-02-02T04:40:58.586Z,46.15
2023-02-02T04:43:26.468Z,44.97
2023-02-02T04:45:57.634Z,45.55
2023-02-02T04:48:25.514Z,46.53
2023-02-02T04:51:03.114Z,45.08
2023-02-02T04:53:30.997Z,46.20
2023-02-02T04:55:59.311Z,49.92
2023-02-02T04:58:27.113Z,47.05
2023-02-02T05:00:55.137Z,46.70
2023-02-02T05:03:22.999Z,47.22
2023-02-02T05:05:51.150Z,48.60
2023-02-02T05:08:19.150Z,48.35
2023-02-02T05:10:47.176Z,61.25
2023-02-02T05:13:15.225Z,49.53
2023-02-02T05:15:42.965Z,47.05
2023-02-02T05:18:10.901Z,48.35
2023-02-02T05:20:38.712Z,46.65
2023-02-02T05:23:06.655Z,101.47
2023-02-02T05:25:34.480Z,64.22
2023-02-02T05:28:02.449Z,46.50
2023-02-02T05:30:31.690Z,45.58
2023-02-02T05:33:01.191Z,47.53
2023-02-02T05:35:29.022Z,44.78
2023-02-02T05:37:59.291Z,45.83
2023-02-02T05:40:27.127Z,46.35
2023-02-02T05:42:55.095Z,59.10
2023-02-02T05:45:23.918Z,47.92
2023-02-02T05:47:55.855Z,47.25
2023-02-02T05:50:23.660Z,43.28
2023-02-02T05:53:02.936Z,45.70
2023-02-02T05:55:30.880Z,47.88
2023-02-02T05:57:58.660Z,62.10
2023-02-02T06:00:26.872Z,52.63
2023-02-02T06:02:54.868Z,59.63
2023-02-02T06:05:23.896Z,59.97
2023-02-02T06:07:51.839Z,50.33
2023-02-02T06:10:19.615Z,60.60
2023-02-02T06:12:47.597Z,74.22
2023-02-02T06:15:15.646Z,81.00
2023-02-02T06:17:43.399Z,56.20
2023-02-02T06:20:11.592Z,46.85
2023-02-02T06:22:39.365Z,55.65
2023-02-02T06:25:08.712Z,82.75
2023-02-02T06:27:36.570Z,53.42
2023-02-02T06:30:04.854Z,52.55
2023-02-02T06:32:32.893Z,58.88
2023-02-02T06:35:00.954Z,49.15
2023-02-02T06:37:30.671Z,46.35
2023-02-02T06:39:58.781Z,60.38
2023-02-02T06:42:26.555Z,50.78
2023-02-02T06:44:54.338Z,51.60
2023-02-02T06:47:22.177Z,52.20
2023-02-02T06:49:50.090Z,46.90
2023-02-02T06:52:17.842Z,47.38
2023-02-02T06:54:45.839Z,47.33
2023-02-02T06:57:17.008Z,48.40
2023-02-02T06:59:44.959Z,45.70
2023-02-02T07:02:13.342Z,46.28
2023-02-02T07:04:41.193Z,45.53
2023-02-02T07:07:10.222Z,49.28
2023-02-02T07:09:37.969Z,48.13
2023-02-02T07:12:05.832Z,40.75
2023-02-02T07:14:33.757Z,38.17
2023-02-02T07:17:01.903Z,38.28
2023-02-02T07:19:29.882Z,36.28
2023-02-02T07:21:57.767Z,37.45
2023-02-02T07:24:25.757Z,33.33
2023-02-02T07:26:53.667Z,36.13
2023-02-02T07:29:21.642Z,38.35
2023-02-02T07:31:49.886Z,38.05
2023-02-02T07:34:17.840Z,34.92
2023-02-02T07:36:45.586Z,37.17
2023-02-02T07:39:13.609Z,35.50
2023-02-02T07:41:41.544Z,37.05
2023-02-02T07:44:17.606Z,35.60
2023-02-02T07:46:47.246Z,36.17
2023-02-02T07:49:16.300Z,34.58
2023-02-02T07:51:47.701Z,35.38
2023-02-02T07:54:16.113Z,36.50
2023-02-02T07:56:44.096Z,35.80
2023-02-02T07:59:12.099Z,39.42
2023-02-02T08:01:40.072Z,38.08
2023-02-02T08:04:08.050Z,39.63
2023-02-02T08:06:37.283Z,40.78
2023-02-02T08:09:07.725Z,42.00
2023-02-02T08:11:36.474Z,43.33
2023-02-02T08:14:04.656Z,43.67
2023-02-02T08:16:33.033Z,45.83
2023-02-02T08:19:01.269Z,47.05
2023-02-02T08:21:29.048Z,48.60
2023-02-02T08:23:57.073Z,51.80
2023-02-02T08:26:26.327Z,51.35
2023-02-02T08:28:55.957Z,50.65
2023-02-02T08:31:28.398Z,49.85
2023-02-02T08:33:58.041Z,49.88
2023-02-02T08:36:27.284Z,49.80
2023-02-02T08:38:55.428Z,50.45
2023-02-02T08:41:24.461Z,52.50
2023-02-02T08:43:52.653Z,55.45
2023-02-02T08:46:21.692Z,53.20
2023-02-02T08:48:49.864Z,57.45
2023-02-02T08:51:18.751Z,58.60
2023-02-02T08:53:47.165Z,56.60
2023-02-02T08:56:16.710Z,59.13
2023-02-02T08:58:55.427Z,61.55
2023-02-02T09:01:24.457Z,60.45
2023-02-02T09:03:56.394Z,60.75
2023-02-02T09:06:27.299Z,62.13
2023-02-02T09:08:55.336Z,62.38
2023-02-02T09:11:23.310Z,62.05
2023-02-02T09:13:54.428Z,62.92
2023-02-02T09:16:22.625Z,62.88
2023-02-02T09:18:50.584Z,59.90
2023-02-02T09:21:18.852Z,62.53
2023-02-02T09:23:47.810Z,63.28
2023-02-02T09:26:15.664Z,62.30
2023-02-02T09:28:44.767Z,62.10
2023-02-02T09:31:13.238Z,62.63
2023-02-02T09:33:41.453Z,62.92
2023-02-02T09:36:13.924Z,63.20
2023-02-02T09:38:42.553Z,61.55
2023-02-02T09:41:16.752Z,64.00
2023-02-02T09:44:03.461Z,61.80
2023-02-02T09:46:48.220Z,64.13
2023-02-02T09:49:18.734Z,62.15
2023-02-02T09:51:49.518Z,58.53
2023-02-02T09:54:34.415Z,58.35
2023-02-02T09:57:03.563Z,58.03
2023-02-02T09:59:36.474Z,57.55
2023-02-02T10:02:10.937Z,56.88
2023-02-02T10:04:41.198Z,56.08
2023-02-02T10:07:12.869Z,54.65
2023-02-02T10:09:43.736Z,55.72
2023-02-02T10:12:17.679Z,51.95
2023-02-02T10:14:52.039Z,52.60
2023-02-02T10:17:35.243Z,52.28
2023-02-02T10:20:15.329Z,52.22
2023-02-02T10:22:43.678Z,51.35
2023-02-02T10:25:17.692Z,51.40
2023-02-02T10:27:51.304Z,52.47
2023-02-02T10:30:24.419Z,52.17
2023-02-02T10:32:52.361Z,51.35
2023-02-02T10:35:20.420Z,49.38
2023-02-02T10:37:54.346Z,51.85
2023-02-02T10:40:25.651Z,50.22
2023-02-02T10:43:25.290Z,46.90
2023-02-02T10:45:53.992Z,45.10
2023-02-02T10:48:23.851Z,42.70
2023-02-02T10:50:56.049Z,41.05
2023-02-02T10:53:26.021Z,40.70
2023-02-02T10:56:11.866Z,40.33
2023-02-02T10:58:45.202Z,36.72
2023-02-02T11:01:14.607Z,34.83
2023-02-02T11:03:42.697Z,36.10
2023-02-02T11:06:32.896Z,34.55
2023-02-02T11:09:01.417Z,36.00
2023-02-02T11:11:39.352Z,38.53
2023-02-02T11:14:10.554Z,36.40
2023-02-02T11:16:43.648Z,35.10
2023-02-02T11:19:32.316Z,35.65
2023-02-02T11:22:02.319Z,34.92
2023-02-02T11:24:36.773Z,34.90
2023-02-02T11:27:16.217Z,34.78
2023-02-02T11:29:47.305Z,36.60
2023-02-02T11:32:24.600Z,36.95
2023-02-02T11:35:12.832Z,36.97
2023-02-02T11:37:53.341Z,35.67
2023-02-02T11:40:32.496Z,33.25
2023-02-02T11:43:02.155Z,29.25
2023-02-02T11:45:34.688Z,28.58
2023-02-02T11:48:03.734Z,27.13
2023-02-02T11:50:31.947Z,26.20
2023-02-02T11:52:59.756Z,25.83
2023-02-02T11:55:32.141Z,24.42
2023-02-02T11:58:29.379Z,25.20
2023-02-02T12:00:57.275Z,22.35
2023-02-02T12:03:30.714Z,21.27
2023-02-02T12:05:58.766Z,20.38
2023-02-02T12:08:26.672Z,19.88
2023-02-02T12:10:59.682Z,17.70
2023-02-02T12:13:27.625Z,16.42
2023-02-02T12:16:02.215Z,18.08
2023-02-02T12:18:49.016Z,16.70
2023-02-02T12:21:17.066Z,17.30
2023-02-02T12:23:44.855Z,15.80
2023-02-02T12:26:15.716Z,15.88
2023-02-02T12:29:07.249Z,14.05
2023-02-02T12:31:35.177Z,13.80
2023-02-02T12:34:06.609Z,15.68
2023-02-02T12:36:53.269Z,14.80
2023-02-02T12:39:21.626Z,14.23
2023-02-02T12:42:08.473Z,13.30
2023-02-02T12:44:39.358Z,12.38
2023-02-02T12:47:26.357Z,12.55
2023-02-02T12:50:21.271Z,11.27
2023-02-02T12:52:55.322Z,9.95
2023-02-02T12:55:35.054Z,10.45
2023-02-02T12:58:07.548Z,9.52
2023-02-02T13:00:42.728Z,8.77
2023-02-02T13:03:26.966Z,8.45
2023-02-02T13:06:13.807Z,10.13
2023-02-02T13:08:46.400Z,12.02
2023-02-02T13:11:32.798Z,6.88
2023-02-02T13:14:08.820Z,6.13
2023-02-02T13:16:38.139Z,6.10
2023-02-02T13:19:07.935Z,7.35
2023-02-02T13:21:37.402Z,6.38
2023-02-02T13:24:06.387Z,6.15
2023-02-02T13:26:40.992Z,6.10
2023-02-02T13:29:11.663Z,6.22
2023-02-02T13:31:51.426Z,8.48
2023-02-02T13:34:19.427Z,5.70
2023-02-02T13:36:56.349Z,5.90
2023-02-02T13:39:42.817Z,6.55
2023-02-02T13:42:21.111Z,6.90
2023-02-02T13:44:53.835Z,7.05
2023-02-02T13:47:26.759Z,7.82
2023-02-02T13:49:57.581Z,7.82
2023-02-02T13:52:44.316Z,8.10
2023-02-02T13:55:30.590Z,10.15
2023-02-02T13:58:13.930Z,10.00
2023-02-02T14:00:47.605Z,9.52
2023-02-02T14:03:32.285Z,10.07
2023-02-02T14:06:12.439Z,9.95
2023-02-02T14:08:51.785Z,10.30
2023-02-02T14:11:24.852Z,11.60
2023-02-02T14:14:14.376Z,11.20
2023-02-02T14:16:42.100Z,10.60
2023-02-02T14:19:17.315Z,11.95
2023-02-02T14:21:45.150Z,12.55
2023-02-02T14:24:25.350Z,12.70
2023-02-02T14:26:57.566Z,12.45
2023-02-02T14:29:31.642Z,11.82
2023-02-02T14:32:00.905Z,11.57
2023-02-02T14:34:30.676Z,11.68
2023-02-02T14:37:15.715Z,12.52
2023-02-02T14:39:49.529Z,12.38
2023-02-02T14:42:42.118Z,11.70
2023-02-02T14:45:12.956Z,11.98
2023-02-02T14:47:49.186Z,12.57
2023-02-02T14:50:18.874Z,12.82
2023-02-02T14:52:57.101Z,11.30
2023-02-02T14:55:25.721Z,13.00
2023-02-02T14:57:58.455Z,12.57
2023-02-02T15:00:33.727Z,14.38
2023-02-02T15:03:20.830Z,13.43
2023-02-02T15:06:01.984Z,12.48
2023-02-02T15:08:29.796Z,13.65
2023-02-02T15:10:59.181Z,13.73
2023-02-02T15:13:29.570Z,12.93
2023-02-02T15:16:05.614Z,13.02
2023-02-02T15:18:39.837Z,13.55
2023-02-02T15:21:08.840Z,13.75
2023-02-02T15:23:42.285Z,14.50
2023-02-02T15:26:10.032Z,14.45
2023-02-02T15:28:47.783Z,14.23
2023-02-02T15:31:34.524Z,12.75
2023-02-02T15:34:06.179Z,13.35
2023-02-02T15:36:36.189Z,13.43
2023-02-02T15:39:09.413Z,13.55
2023-02-02T15:44:19.091Z,14.55
2023-02-02T15:46:47.062Z,14.93
2023-02-02T15:49:33.643Z,14.90
2023-02-02T15:52:22.619Z,13.93
2023-02-02T15:54:55.039Z,14.90
2023-02-02T15:57:25.063Z,13.95
2023-02-02T15:59:52.858Z,13.70
2023-02-02T16:02:39.392Z,12.85
2023-02-02T16:05:27.029Z,12.75
2023-02-02T16:08:05.049Z,12.85
2023-02-02T16:10:34.284Z,14.15
2023-02-02T16:13:02.494Z,14.88
2023-02-02T16:15:34.585Z,14.25
2023-02-02T16:18:04.057Z,14.90
2023-02-02T16:20:36.304Z,18.73
2023-02-02T16:23:06.865Z,17.10
2023-02-02T16:25:38.013Z,19.77
2023-02-02T16:28:06.021Z,19.67
2023-02-02T16:30:35.887Z,17.55
2023-02-02T16:33:22.519Z,15.43
2023-02-02T16:35:50.391Z,15.10
2023-02-02T16:38:31.448Z,13.05
2023-02-02T16:41:12.738Z,11.63
2023-02-02T16:43:41.883Z,10.50
2023-02-02T16:46:12.170Z,10.30
2023-02-02T16:48:40.125Z,11.45
2023-02-02T16:51:17.181Z,10.27
2023-02-02T16:53:49.446Z,10.68
2023-02-02T16:56:31.067Z,9.75
2023-02-02T16:59:01.166Z,10.80
2023-02-02T17:01:38.752Z,52.65
2023-02-02T17:04:07.431Z,12.90
2023-02-02T17:06:51.368Z,11.65
2023-02-02T17:09:35.226Z,47.85
2023-02-02T17:12:16.797Z,12.93
2023-02-02T17:14:53.765Z,11.55
2023-02-02T17:20:09.764Z,12.32
2023-02-02T17:22:42.180Z,12.77
2023-02-02T17:25:15.601Z,12.47
2023-02-02T17:27:43.452Z,12.85
2023-02-02T17:30:15.357Z,18.25
2023-02-02T17:32:43.120Z,15.27
2023-02-02T17:35:21.131Z,24.05
2023-02-02T17:37:49.252Z,16.23
2023-02-02T17:40:18.252Z,16.60
2023-02-02T17:42:46.566Z,18.98
2023-02-02T17:45:16.400Z,16.10
2023-02-02T17:47:44.165Z,17.45
2023-02-02T17:50:12.425Z,19.10
2023-02-02T17:52:41.115Z,19.05
2023-02-02T17:55:26.161Z,19.02
2023-02-02T17:57:54.690Z,21.42
2023-02-02T18:00:24.918Z,21.92
2023-02-02T18:02:56.738Z,29.45
2023-02-02T18:05:25.203Z,32.55
2023-02-02T18:07:54.907Z,29.88
2023-02-02T18:10:26.258Z,25.30
2023-02-02T18:12:54.144Z,27.38
2023-02-02T18:15:22.147Z,103.13
2023-02-02T18:17:50.132Z,37.92
2023-02-02T18:20:18.204Z,29.83
2023-02-02T18:22:48.323Z,23.02
2023-02-02T18:25:16.271Z,24.15
2023-02-02T18:27:44.350Z,26.25
2023-02-02T18:30:12.723Z,30.00
2023-02-02T18:32:41.515Z,62.78
2023-02-02T18:35:10.966Z,30.90
2023-02-02T18:37:39.370Z,26.67
2023-02-02T18:40:08.033Z,25.45
2023-02-02T18:42:36.954Z,26.92
2023-02-02T18:45:05.827Z,29.05
2023-02-02T18:47:33.788Z,26.33
2023-02-02T18:50:01.816Z,53.15
2023-02-02T18:52:33.954Z,54.75
2023-02-02T18:55:02.099Z,27.45
2023-02-02T18:57:31.269Z,27.52
2023-02-02T19:00:00.166Z,28.52
2023-02-02T19:02:28.053Z,29.88
2023-02-02T19:05:14.823Z,30.15
2023-02-02T19:07:55.527Z,29.00
2023-02-02T19:10:24.489Z,27.58
2023-02-02T19:12:58.459Z,29.60
2023-02-02T19:15:26.903Z,38.40
2023-02-02T19:17:55.721Z,32.33
2023-02-02T19:20:23.617Z,32.10
2023-02-02T19:22:55.694Z,32.03
2023-02-02T19:25:23.696Z,69.93
2023-02-02T19:27:51.787Z,39.92
2023-02-02T19:30:20.901Z,86.65
2023-02-02T19:32:48.971Z,45.63
2023-02-02T19:35:21.452Z,41.42
2023-02-02T19:37:50.003Z,35.08
2023-02-02T19:40:22.617Z,35.45
2023-02-02T19:42:52.806Z,42.38
2023-02-02T19:45:22.949Z,41.55
2023-02-02T19:47:54.119Z,42.45
2023-02-02T19:50:23.227Z,39.28
2023-02-02T19:52:53.641Z,43.58
2023-02-02T19:55:26.618Z,46.42
2023-02-02T19:57:58.549Z,55.45
2023-02-02T20:00:28.635Z,72.63
2023-02-02T20:02:58.065Z,53.65
2023-02-02T20:05:37.363Z,51.35
2023-02-02T20:08:24.325Z,56.63
2023-02-02T20:10:53.254Z,62.42
2023-02-02T20:13:20.972Z,76.10
2023-02-02T20:15:49.837Z,83.65
2023-02-02T20:18:20.165Z,89.18
2023-02-02T20:20:50.122Z,64.70
2023-02-02T20:23:21.074Z,67.55
2023-02-02T20:25:49.264Z,67.13
2023-02-02T20:28:34.247Z,68.53
2023-02-02T20:31:02.704Z,64.88
2023-02-02T20:33:31.544Z,70.30
2023-02-02T20:36:00.501Z,68.75
2023-02-02T20:38:33.153Z,70.72
2023-02-02T20:43:32.999Z,66.60
2023-02-02T20:46:01.047Z,68.38
2023-02-02T20:48:29.377Z,68.00
2023-02-02T20:50:57.249Z,70.00
2023-02-02T20:53:25.010Z,74.78
2023-02-02T20:55:57.285Z,68.90
2023-02-02T20:58:25.394Z,68.30
2023-02-02T21:00:53.307Z,68.25
2023-02-02T21:03:21.389Z,68.20
2023-02-02T21:05:49.251Z,70.50
2023-02-02T21:08:16.985Z,69.40
2023-02-02T21:10:44.850Z,70.57
2023-02-02T21:13:12.598Z,68.80
2023-02-02T21:15:40.331Z,69.43
2023-02-02T21:18:08.284Z,67.57
2023-02-02T21:20:36.165Z,69.40
2023-02-02T21:23:04.070Z,69.95
2023-02-02T21:25:32.151Z,70.60
2023-02-02T21:28:00.382Z,70.50
2023-02-02T21:30:29.004Z,69.80
2023-02-02T21:32:57.019Z,69.82
2023-02-02T21:35:26.874Z,70.50
2023-02-02T21:37:57.416Z,70.32
2023-02-02T21:40:30.464Z,67.45
2023-02-02T21:42:59.401Z,67.68
2023-02-02T21:45:34.450Z,73.03
2023-02-02T21:48:03.545Z,65.32
2023-02-02T21:50:40.585Z,69.32
2023-02-02T21:53:08.352Z,68.38
2023-02-02T21:55:37.914Z,65.63
2023-02-02T21:58:11.873Z,66.38
2023-02-02T22:00:39.776Z,65.43
2023-02-02T22:03:21.260Z,68.10
2023-02-02T22:05:48.993Z,66.88
2023-02-02T22:08:24.331Z,67.72
2023-02-02T22:10:52.365Z,66.47
2023-02-02T22:13:21.116Z,69.38
2023-02-02T22:15:51.127Z,66.25
2023-02-02T22:18:23.223Z,67.63
2023-02-02T22:20:51.859Z,68.10
2023-02-02T22:23:27.399Z,70.05
2023-02-02T22:25:56.163Z,71.30
2023-02-02T22:28:24.274Z,66.30
2023-02-02T22:30:52.657Z,67.10
2023-02-02T22:33:20.920Z,69.40
2023-02-02T22:35:48.844Z,68.65
2023-02-02T22:38:18.233Z,68.80
2023-02-02T22:40:46.445Z,65.38
2023-02-02T22:43:16.297Z,68.72
2023-02-02T22:45:44.542Z,68.82
2023-02-02T22:48:13.028Z,66.47
2023-02-02T22:50:41.185Z,65.38
2023-02-02T22:53:09.199Z,64.18
2023-02-02T22:55:36.996Z,65.10
2023-02-02T22:58:05.712Z,62.08
2023-02-02T23:00:33.457Z,59.35
2023-02-02T23:03:01.743Z,57.33
2023-02-02T23:05:29.611Z,57.40
2023-02-02T23:07:57.516Z,58.55
2023-02-02T23:10:26.822Z,60.25
2023-02-02T23:12:55.935Z,56.92
2023-02-02T23:15:23.768Z,61.80
2023-02-02T23:17:51.611Z,62.60
2023-02-02T23:20:19.467Z,57.22
2023-02-02T23:22:47.415Z,57.28
2023-02-02T23:25:15.575Z,60.03
2023-02-02T23:27:43.523Z,64.65
2023-02-02T23:30:13.571Z,66.47
2023-02-02T23:32:41.918Z,62.03
2023-02-02T23:35:10.860Z,59.50
2023-02-02T23:37:39.122Z,59.90
2023-02-02T23:40:07.424Z,62.38
2023-02-02T23:42:35.288Z,67.25
2023-02-02T23:45:04.113Z,73.43
2023-02-02T23:47:33.513Z,74.40
2023-02-02T23:50:03.052Z,71.70
2023-02-02T23:52:31.346Z,69.70
2023-02-02T23:55:00.139Z,66.35
2023-02-02T23:57:27.997Z,63.40
2023-02-02T23:59:56.004Z,65.70
